sensor_id;sensor_type;location;lat;lon;timestamp;pressure;altitude;pressure_sealevel;temperature;humidity
43820;BME280;67762;52.476;6.046;2023-04-25T00:01:47;100977.97;;;5.24;92.24
43820;BME280;67762;52.476;6.046;2023-04-25T00:04:12;100986.50;;;5.27;92.51
43820;BME280;67762;52.476;6.046;2023-04-25T00:06:38;100985.16;;;5.33;92.23
43820;BME280;67762;52.476;6.046;2023-04-25T00:09:05;100989.81;;;5.41;92.32
43820;BME280;67762;52.476;6.046;2023-04-25T00:11:34;100989.41;;;5.45;92.51
43820;BME280;67762;52.476;6.046;2023-04-25T00:14:00;100981.94;;;5.50;92.38
43820;BME280;67762;52.476;6.046;2023-04-25T00:16:28;100985.06;;;5.55;92.37
43820;BME280;67762;52.476;6.046;2023-04-25T00:18:56;100985.34;;;5.62;92.26
43820;BME280;67762;52.476;6.046;2023-04-25T00:21:22;100981.34;;;5.67;92.44
43820;BME280;67762;52.476;6.046;2023-04-25T00:23:49;100984.59;;;5.71;92.41
43820;BME280;67762;52.476;6.046;2023-04-25T00:26:15;100975.56;;;5.73;92.36
43820;BME280;67762;52.476;6.046;2023-04-25T00:28:41;100993.84;;;5.76;92.11
43820;BME280;67762;52.476;6.046;2023-04-25T00:31:06;100991.88;;;5.78;92.29
43820;BME280;67762;52.476;6.046;2023-04-25T00:33:32;100994.28;;;5.81;92.05
43820;BME280;67762;52.476;6.046;2023-04-25T00:35:58;100991.50;;;5.83;92.60
43820;BME280;67762;52.476;6.046;2023-04-25T00:38:23;100986.06;;;5.84;92.43
43820;BME280;67762;52.476;6.046;2023-04-25T00:40:49;100992.25;;;5.85;92.40
43820;BME280;67762;52.476;6.046;2023-04-25T00:43:15;100994.91;;;5.85;92.36
43820;BME280;67762;52.476;6.046;2023-04-25T00:45:42;100985.97;;;5.86;91.86
43820;BME280;67762;52.476;6.046;2023-04-25T00:48:08;100985.16;;;5.85;91.90
43820;BME280;67762;52.476;6.046;2023-04-25T00:50:35;100988.59;;;5.86;91.40
43820;BME280;67762;52.476;6.046;2023-04-25T00:53:02;100989.47;;;5.86;91.78
43820;BME280;67762;52.476;6.046;2023-04-25T00:55:29;100993.16;;;5.84;91.66
43820;BME280;67762;52.476;6.046;2023-04-25T00:57:57;100990.78;;;5.81;91.64
43820;BME280;67762;52.476;6.046;2023-04-25T01:00:23;100999.13;;;5.76;91.85
43820;BME280;67762;52.476;6.046;2023-04-25T01:02:49;100993.38;;;5.71;91.71
43820;BME280;67762;52.476;6.046;2023-04-25T01:05:15;100993.63;;;5.68;91.42
43820;BME280;67762;52.476;6.046;2023-04-25T01:07:41;100996.78;;;5.62;91.29
43820;BME280;67762;52.476;6.046;2023-04-25T01:10:07;100999.00;;;5.57;91.16
43820;BME280;67762;52.476;6.046;2023-04-25T01:12:33;101000.19;;;5.53;91.11
43820;BME280;67762;52.476;6.046;2023-04-25T01:14:59;100997.25;;;5.47;91.35
43820;BME280;67762;52.476;6.046;2023-04-25T01:17:25;100993.75;;;5.46;91.26
43820;BME280;67762;52.476;6.046;2023-04-25T01:19:50;101002.53;;;5.47;91.45
43820;BME280;67762;52.476;6.046;2023-04-25T01:22:17;101003.94;;;5.51;91.48
43820;BME280;67762;52.476;6.046;2023-04-25T01:24:43;101004.53;;;5.54;91.30
43820;BME280;67762;52.476;6.046;2023-04-25T01:27:09;101004.03;;;5.60;90.93
43820;BME280;67762;52.476;6.046;2023-04-25T01:29:36;101016.63;;;5.68;91.25
43820;BME280;67762;52.476;6.046;2023-04-25T01:32:02;101023.06;;;5.75;90.74
43820;BME280;67762;52.476;6.046;2023-04-25T01:34:29;101008.28;;;5.72;90.44
43820;BME280;67762;52.476;6.046;2023-04-25T01:36:59;101025.41;;;5.68;90.31
43820;BME280;67762;52.476;6.046;2023-04-25T01:39:25;101020.63;;;5.62;90.12
43820;BME280;67762;52.476;6.046;2023-04-25T01:41:51;101029.75;;;5.58;90.25
43820;BME280;67762;52.476;6.046;2023-04-25T01:44:17;101023.91;;;5.55;89.72
43820;BME280;67762;52.476;6.046;2023-04-25T01:46:42;101025.13;;;5.51;89.55
43820;BME280;67762;52.476;6.046;2023-04-25T01:49:10;101028.16;;;5.46;89.55
43820;BME280;67762;52.476;6.046;2023-04-25T01:51:36;101028.41;;;5.43;89.41
43820;BME280;67762;52.476;6.046;2023-04-25T01:54:02;101026.97;;;5.39;89.05
43820;BME280;67762;52.476;6.046;2023-04-25T01:56:32;101024.69;;;5.35;88.87
43820;BME280;67762;52.476;6.046;2023-04-25T01:58:59;101029.41;;;5.31;89.11
43820;BME280;67762;52.476;6.046;2023-04-25T02:01:40;101032.28;;;5.28;88.88
43820;BME280;67762;52.476;6.046;2023-04-25T02:04:20;101025.69;;;5.22;89.03
43820;BME280;67762;52.476;6.046;2023-04-25T02:06:46;101031.13;;;5.21;89.08
43820;BME280;67762;52.476;6.046;2023-04-25T02:09:11;101039.16;;;5.19;89.10
43820;BME280;67762;52.476;6.046;2023-04-25T02:11:42;101035.72;;;5.19;88.79
43820;BME280;67762;52.476;6.046;2023-04-25T02:14:28;101034.88;;;5.18;89.00
43820;BME280;67762;52.476;6.046;2023-04-25T02:17:14;101032.22;;;5.18;89.02
43820;BME280;67762;52.476;6.046;2023-04-25T02:19:39;101031.97;;;5.21;88.93
43820;BME280;67762;52.476;6.046;2023-04-25T02:22:06;101035.19;;;5.25;89.17
43820;BME280;67762;52.476;6.046;2023-04-25T02:24:32;101040.47;;;5.25;88.94
43820;BME280;67762;52.476;6.046;2023-04-25T02:26:59;101043.13;;;5.25;89.27
43820;BME280;67762;52.476;6.046;2023-04-25T02:29:24;101042.16;;;5.26;89.48
43820;BME280;67762;52.476;6.046;2023-04-25T02:31:50;101041.31;;;5.25;89.36
43820;BME280;67762;52.476;6.046;2023-04-25T02:34:16;101032.53;;;5.25;89.45
43820;BME280;67762;52.476;6.046;2023-04-25T02:36:42;101039.66;;;5.24;89.21
43820;BME280;67762;52.476;6.046;2023-04-25T02:39:07;101045.06;;;5.23;89.28
43820;BME280;67762;52.476;6.046;2023-04-25T02:41:33;101051.44;;;5.20;89.37
43820;BME280;67762;52.476;6.046;2023-04-25T02:43:59;101046.41;;;5.17;89.66
43820;BME280;67762;52.476;6.046;2023-04-25T02:46:25;101054.47;;;5.16;89.36
43820;BME280;67762;52.476;6.046;2023-04-25T02:48:50;101054.47;;;5.16;89.44
43820;BME280;67762;52.476;6.046;2023-04-25T02:51:16;101056.28;;;5.15;89.49
43820;BME280;67762;52.476;6.046;2023-04-25T02:53:42;101056.28;;;5.15;89.54
43820;BME280;67762;52.476;6.046;2023-04-25T02:56:08;101065.91;;;5.16;89.65
43820;BME280;67762;52.476;6.046;2023-04-25T02:58:34;101060.47;;;5.18;89.75
43820;BME280;67762;52.476;6.046;2023-04-25T03:00:59;101057.56;;;5.21;89.55
43820;BME280;67762;52.476;6.046;2023-04-25T03:03:26;101053.00;;;5.23;89.44
43820;BME280;67762;52.476;6.046;2023-04-25T03:05:51;101053.59;;;5.26;89.56
43820;BME280;67762;52.476;6.046;2023-04-25T03:08:21;101055.28;;;5.27;89.66
43820;BME280;67762;52.476;6.046;2023-04-25T03:10:48;101062.13;;;5.30;89.67
43820;BME280;67762;52.476;6.046;2023-04-25T03:13:15;101062.69;;;5.33;89.48
43820;BME280;67762;52.476;6.046;2023-04-25T03:15:42;101065.84;;;5.39;89.61
43820;BME280;67762;52.476;6.046;2023-04-25T03:18:08;101068.22;;;5.42;89.51
43820;BME280;67762;52.476;6.046;2023-04-25T03:20:33;101068.81;;;5.45;89.43
43820;BME280;67762;52.476;6.046;2023-04-25T03:22:59;101075.53;;;5.49;89.84
43820;BME280;67762;52.476;6.046;2023-04-25T03:25:26;101074.44;;;5.52;89.73
43820;BME280;67762;52.476;6.046;2023-04-25T03:27:52;101087.44;;;5.55;89.37
43820;BME280;67762;52.476;6.046;2023-04-25T03:30:18;101089.94;;;5.56;89.16
43820;BME280;67762;52.476;6.046;2023-04-25T03:32:44;101078.50;;;5.56;89.50
43820;BME280;67762;52.476;6.046;2023-04-25T03:35:12;101080.34;;;5.55;88.99
43820;BME280;67762;52.476;6.046;2023-04-25T03:37:38;101078.50;;;5.56;88.91
43820;BME280;67762;52.476;6.046;2023-04-25T03:40:06;101078.41;;;5.57;88.65
43820;BME280;67762;52.476;6.046;2023-04-25T03:42:52;101073.22;;;5.56;88.78
43820;BME280;67762;52.476;6.046;2023-04-25T03:45:17;101077.56;;;5.57;88.46
43820;BME280;67762;52.476;6.046;2023-04-25T03:47:43;101076.69;;;5.56;88.65
43820;BME280;67762;52.476;6.046;2023-04-25T03:50:09;101074.06;;;5.56;88.36
43820;BME280;67762;52.476;6.046;2023-04-25T03:52:35;101078.41;;;5.57;88.11
43820;BME280;67762;52.476;6.046;2023-04-25T03:55:02;101088.13;;;5.57;87.76
43820;BME280;67762;52.476;6.046;2023-04-25T03:57:27;101093.44;;;5.57;87.45
43820;BME280;67762;52.476;6.046;2023-04-25T03:59:53;101096.06;;;5.57;87.27
43820;BME280;67762;52.476;6.046;2023-04-25T04:02:19;101094.38;;;5.56;87.13
43820;BME280;67762;52.476;6.046;2023-04-25T04:04:45;101101.38;;;5.57;87.17
43820;BME280;67762;52.476;6.046;2023-04-25T04:07:12;101104.16;;;5.55;87.38
43820;BME280;67762;52.476;6.046;2023-04-25T04:09:40;101100.66;;;5.55;86.91
43820;BME280;67762;52.476;6.046;2023-04-25T04:12:10;101115.69;;;5.54;87.02
43820;BME280;67762;52.476;6.046;2023-04-25T04:14:37;101114.00;;;5.53;86.97
43820;BME280;67762;52.476;6.046;2023-04-25T04:17:03;101107.88;;;5.53;87.00
43820;BME280;67762;52.476;6.046;2023-04-25T04:19:29;101114.16;;;5.52;86.87
43820;BME280;67762;52.476;6.046;2023-04-25T04:22:03;101114.38;;;5.49;86.67
43820;BME280;67762;52.476;6.046;2023-04-25T04:24:29;101115.34;;;5.48;86.75
43820;BME280;67762;52.476;6.046;2023-04-25T04:26:59;101115.34;;;5.48;86.31
43820;BME280;67762;52.476;6.046;2023-04-25T04:29:35;101114.63;;;5.46;86.75
43820;BME280;67762;52.476;6.046;2023-04-25T04:32:31;101124.50;;;5.44;86.74
43820;BME280;67762;52.476;6.046;2023-04-25T04:34:58;101123.66;;;5.43;86.86
43820;BME280;67762;52.476;6.046;2023-04-25T04:37:25;101123.66;;;5.43;86.85
43820;BME280;67762;52.476;6.046;2023-04-25T04:39:51;101127.25;;;5.42;86.90
43820;BME280;67762;52.476;6.046;2023-04-25T04:42:44;101126.41;;;5.42;87.18
43820;BME280;67762;52.476;6.046;2023-04-25T04:45:20;101137.00;;;5.42;87.02
43820;BME280;67762;52.476;6.046;2023-04-25T04:48:05;101128.97;;;5.43;87.18
43820;BME280;67762;52.476;6.046;2023-04-25T04:50:35;101140.25;;;5.45;87.42
43820;BME280;67762;52.476;6.046;2023-04-25T04:53:22;101148.09;;;5.47;87.08
43820;BME280;67762;52.476;6.046;2023-04-25T04:56:13;101149.75;;;5.48;87.42
43820;BME280;67762;52.476;6.046;2023-04-25T04:58:44;101146.16;;;5.49;86.82
43820;BME280;67762;52.476;6.046;2023-04-25T05:01:32;101165.53;;;5.49;86.97
43820;BME280;67762;52.476;6.046;2023-04-25T05:04:18;101167.19;;;5.50;86.92
43820;BME280;67762;52.476;6.046;2023-04-25T05:07:00;101158.16;;;5.53;86.53
43820;BME280;67762;52.476;6.046;2023-04-25T05:09:45;101162.38;;;5.55;85.93
43820;BME280;67762;52.476;6.046;2023-04-25T05:12:11;101165.84;;;5.56;86.16
43820;BME280;67762;52.476;6.046;2023-04-25T05:14:55;101167.53;;;5.57;85.77
43820;BME280;67762;52.476;6.046;2023-04-25T05:17:39;101168.38;;;5.57;85.80
43820;BME280;67762;52.476;6.046;2023-04-25T05:20:23;101177.03;;;5.59;85.69
43820;BME280;67762;52.476;6.046;2023-04-25T05:23:00;101180.41;;;5.61;85.15
43820;BME280;67762;52.476;6.046;2023-04-25T05:25:49;101176.66;;;5.64;85.53
43820;BME280;67762;52.476;6.046;2023-04-25T05:28:31;101181.72;;;5.67;85.47
43820;BME280;67762;52.476;6.046;2023-04-25T05:31:14;101189.28;;;5.71;86.15
43820;BME280;67762;52.476;6.046;2023-04-25T05:33:58;101193.34;;;5.75;85.53
43820;BME280;67762;52.476;6.046;2023-04-25T05:36:34;101200.09;;;5.79;85.76
43820;BME280;67762;52.476;6.046;2023-04-25T05:39:00;101201.44;;;5.85;85.90
43820;BME280;67762;52.476;6.046;2023-04-25T05:41:45;101202.75;;;5.91;85.57
43820;BME280;67762;52.476;6.046;2023-04-25T05:44:31;101210.31;;;5.95;85.85
43820;BME280;67762;52.476;6.046;2023-04-25T05:47:35;101206.56;;;5.98;86.27
43820;BME280;67762;52.476;6.046;2023-04-25T05:50:24;101220.16;;;6.04;86.45
43820;BME280;67762;52.476;6.046;2023-04-25T05:53:10;101225.81;;;6.11;86.29
43820;BME280;67762;52.476;6.046;2023-04-25T05:55:41;101221.22;;;6.13;86.64
43820;BME280;67762;52.476;6.046;2023-04-25T05:58:18;101223.47;;;6.17;86.59
43820;BME280;67762;52.476;6.046;2023-04-25T06:00:44;101230.31;;;6.52;86.71
43820;BME280;67762;52.476;6.046;2023-04-25T06:03:10;101239.03;;;6.84;87.11
43820;BME280;67762;52.476;6.046;2023-04-25T06:05:36;101232.09;;;7.13;86.50
43820;BME280;67762;52.476;6.046;2023-04-25T06:08:02;101236.41;;;7.35;85.75
43820;BME280;67762;52.476;6.046;2023-04-25T06:10:27;101232.53;;;7.58;85.54
43820;BME280;67762;52.476;6.046;2023-04-25T06:12:53;101238.09;;;7.85;85.28
43820;BME280;67762;52.476;6.046;2023-04-25T06:15:20;101241.19;;;8.09;84.56
43820;BME280;67762;52.476;6.046;2023-04-25T06:17:46;101233.19;;;8.00;82.83
43820;BME280;67762;52.476;6.046;2023-04-25T06:20:11;101239.38;;;7.91;82.34
43820;BME280;67762;52.476;6.046;2023-04-25T06:22:39;101237.06;;;7.67;80.23
43820;BME280;67762;52.476;6.046;2023-04-25T06:25:05;101247.50;;;7.49;79.65
43820;BME280;67762;52.476;6.046;2023-04-25T06:27:33;101243.78;;;7.31;78.88
43820;BME280;67762;52.476;6.046;2023-04-25T06:29:59;101259.66;;;7.22;77.97
43820;BME280;67762;52.476;6.046;2023-04-25T06:32:25;101252.09;;;7.17;78.25
43820;BME280;67762;52.476;6.046;2023-04-25T06:34:53;101254.16;;;7.14;77.92
43820;BME280;67762;52.476;6.046;2023-04-25T06:37:19;101254.88;;;7.16;77.96
43820;BME280;67762;52.476;6.046;2023-04-25T06:39:44;101257.00;;;7.22;77.75
43820;BME280;67762;52.476;6.046;2023-04-25T06:42:10;101259.66;;;7.22;77.85
43820;BME280;67762;52.476;6.046;2023-04-25T06:44:45;101258.09;;;7.19;78.29
43820;BME280;67762;52.476;6.046;2023-04-25T06:47:12;101259.19;;;7.17;78.11
43820;BME280;67762;52.476;6.046;2023-04-25T06:49:39;101262.97;;;7.14;78.09
43820;BME280;67762;52.476;6.046;2023-04-25T06:52:05;101266.88;;;7.10;77.87
43820;BME280;67762;52.476;6.046;2023-04-25T06:54:30;101273.84;;;7.11;77.94
43820;BME280;67762;52.476;6.046;2023-04-25T06:57:04;101272.22;;;7.20;77.96
43820;BME280;67762;52.476;6.046;2023-04-25T06:59:31;101279.06;;;7.22;78.19
43820;BME280;67762;52.476;6.046;2023-04-25T07:01:58;101280.34;;;7.28;78.93
43820;BME280;67762;52.476;6.046;2023-04-25T07:04:25;101283.75;;;7.39;78.49
43820;BME280;67762;52.476;6.046;2023-04-25T07:06:55;101282.97;;;7.48;77.77
43820;BME280;67762;52.476;6.046;2023-04-25T07:09:27;101288.88;;;7.52;78.38
43820;BME280;67762;52.476;6.046;2023-04-25T07:11:54;101293.91;;;7.55;78.56
43820;BME280;67762;52.476;6.046;2023-04-25T07:14:19;101303.88;;;7.32;76.01
43820;BME280;67762;52.476;6.046;2023-04-25T07:16:45;101315.66;;;6.77;75.84
43820;BME280;67762;52.476;6.046;2023-04-25T07:19:11;101322.59;;;6.15;76.41
43820;BME280;67762;52.476;6.046;2023-04-25T07:21:37;101314.81;;;5.80;76.93
43820;BME280;67762;52.476;6.046;2023-04-25T07:24:04;101302.41;;;5.58;78.08
43820;BME280;67762;52.476;6.046;2023-04-25T07:26:34;101304.00;;;5.50;78.71
43820;BME280;67762;52.476;6.046;2023-04-25T07:29:22;101307.69;;;5.58;79.00
43820;BME280;67762;52.476;6.046;2023-04-25T07:31:48;101310.09;;;5.72;79.44
43820;BME280;67762;52.476;6.046;2023-04-25T07:34:13;101311.94;;;5.83;79.55
43820;BME280;67762;52.476;6.046;2023-04-25T07:36:39;101313.00;;;5.92;79.67
43820;BME280;67762;52.476;6.046;2023-04-25T07:39:05;101317.78;;;6.09;80.04
43820;BME280;67762;52.476;6.046;2023-04-25T07:41:32;101326.78;;;6.28;80.24
43820;BME280;67762;52.476;6.046;2023-04-25T07:43:58;101328.31;;;6.42;80.17
43820;BME280;67762;52.476;6.046;2023-04-25T07:46:24;101326.22;;;6.57;81.24
43820;BME280;67762;52.476;6.046;2023-04-25T07:48:51;101333.97;;;7.01;81.65
43820;BME280;67762;52.476;6.046;2023-04-25T07:51:17;101335.69;;;7.53;81.32
43820;BME280;67762;52.476;6.046;2023-04-25T07:53:45;101327.91;;;8.01;82.20
43820;BME280;67762;52.476;6.046;2023-04-25T07:56:14;101337.97;;;8.37;82.45
43820;BME280;67762;52.476;6.046;2023-04-25T07:58:42;101328.34;;;8.74;81.79
43820;BME280;67762;52.476;6.046;2023-04-25T08:01:10;101331.50;;;9.16;82.02
43820;BME280;67762;52.476;6.046;2023-04-25T08:03:38;101335.50;;;9.49;80.71
43820;BME280;67762;52.476;6.046;2023-04-25T08:06:09;101336.22;;;9.78;80.48
43820;BME280;67762;52.476;6.046;2023-04-25T08:08:45;101337.97;;;9.97;79.95
43820;BME280;67762;52.476;6.046;2023-04-25T08:11:13;101348.47;;;10.35;78.93
43820;BME280;67762;52.476;6.046;2023-04-25T08:13:39;101344.22;;;10.60;78.65
43820;BME280;67762;52.476;6.046;2023-04-25T08:16:05;101343.97;;;10.53;77.32
43820;BME280;67762;52.476;6.046;2023-04-25T08:18:30;101338.88;;;10.42;74.27
43820;BME280;67762;52.476;6.046;2023-04-25T08:20:56;101340.75;;;10.32;71.28
43820;BME280;67762;52.476;6.046;2023-04-25T08:23:22;101341.28;;;10.36;70.87
43820;BME280;67762;52.476;6.046;2023-04-25T08:25:59;101350.91;;;10.64;69.89
43820;BME280;67762;52.476;6.046;2023-04-25T08:28:27;101346.75;;;10.79;68.47
43820;BME280;67762;52.476;6.046;2023-04-25T08:30:54;101345.66;;;10.90;66.46
43820;BME280;67762;52.476;6.046;2023-04-25T08:33:19;101346.16;;;11.11;66.46
43820;BME280;67762;52.476;6.046;2023-04-25T08:35:57;101350.16;;;11.07;65.98
43820;BME280;67762;52.476;6.046;2023-04-25T08:38:24;101355.75;;;10.96;65.87
43820;BME280;67762;52.476;6.046;2023-04-25T08:40:50;101358.03;;;10.91;67.20
43820;BME280;67762;52.476;6.046;2023-04-25T08:43:20;101367.53;;;10.58;66.09
43820;BME280;67762;52.476;6.046;2023-04-25T08:45:46;101361.81;;;10.35;66.66
43820;BME280;67762;52.476;6.046;2023-04-25T08:48:28;101356.47;;;10.35;66.11
43820;BME280;67762;52.476;6.046;2023-04-25T08:50:55;101370.06;;;10.60;64.42
43820;BME280;67762;52.476;6.046;2023-04-25T08:53:29;101361.66;;;10.72;65.06
43820;BME280;67762;52.476;6.046;2023-04-25T08:55:59;101372.44;;;10.63;62.20
43820;BME280;67762;52.476;6.046;2023-04-25T08:58:25;101374.88;;;10.91;61.59
43820;BME280;67762;52.476;6.046;2023-04-25T09:00:51;101382.56;;;11.30;61.70
43820;BME280;67762;52.476;6.046;2023-04-25T09:03:20;101380.19;;;11.27;60.55
43820;BME280;67762;52.476;6.046;2023-04-25T09:05:47;101374.56;;;10.94;59.81
43820;BME280;67762;52.476;6.046;2023-04-25T09:08:14;101390.03;;;10.55;60.11
43820;BME280;67762;52.476;6.046;2023-04-25T09:10:40;101399.19;;;10.26;60.70
43820;BME280;67762;52.476;6.046;2023-04-25T09:13:12;101398.09;;;9.82;62.06
43820;BME280;67762;52.476;6.046;2023-04-25T09:16:00;101400.59;;;9.83;63.28
43820;BME280;67762;52.476;6.046;2023-04-25T09:18:37;101414.56;;;10.05;64.37
43820;BME280;67762;52.476;6.046;2023-04-25T09:21:08;101410.63;;;9.62;63.72
43820;BME280;67762;52.476;6.046;2023-04-25T09:23:43;101424.56;;;9.18;64.46
43820;BME280;67762;52.476;6.046;2023-04-25T09:26:13;101424.69;;;8.88;65.47
43820;BME280;67762;52.476;6.046;2023-04-25T09:28:39;101419.34;;;8.68;65.32
43820;BME280;67762;52.476;6.046;2023-04-25T09:31:05;101423.94;;;8.57;65.34
43820;BME280;67762;52.476;6.046;2023-04-25T09:33:37;101423.66;;;8.69;65.33
43820;BME280;67762;52.476;6.046;2023-04-25T09:36:05;101432.41;;;9.10;65.11
43820;BME280;67762;52.476;6.046;2023-04-25T09:38:50;101420.75;;;9.95;64.19
43820;BME280;67762;52.476;6.046;2023-04-25T09:41:27;101427.00;;;10.23;61.80
43820;BME280;67762;52.476;6.046;2023-04-25T09:43:57;101428.13;;;10.11;61.49
43820;BME280;67762;52.476;6.046;2023-04-25T09:46:33;101446.69;;;10.13;61.69
43820;BME280;67762;52.476;6.046;2023-04-25T09:49:06;101452.31;;;10.00;61.25
43820;BME280;67762;52.476;6.046;2023-04-25T09:51:38;101447.31;;;9.78;59.91
43820;BME280;67762;52.476;6.046;2023-04-25T09:54:06;101443.72;;;9.60;59.03
43820;BME280;67762;52.476;6.046;2023-04-25T09:56:36;101438.41;;;9.60;59.15
43820;BME280;67762;52.476;6.046;2023-04-25T09:59:05;101440.44;;;9.75;58.82
43820;BME280;67762;52.476;6.046;2023-04-25T10:01:33;101457.72;;;10.27;58.42
43820;BME280;67762;52.476;6.046;2023-04-25T10:04:11;101457.41;;;10.85;57.39
43820;BME280;67762;52.476;6.046;2023-04-25T10:06:52;101450.13;;;11.04;56.69
43820;BME280;67762;52.476;6.046;2023-04-25T10:09:20;101453.84;;;10.94;56.47
43820;BME280;67762;52.476;6.046;2023-04-25T10:11:46;101460.72;;;10.51;55.84
43820;BME280;67762;52.476;6.046;2023-04-25T10:14:13;101454.44;;;9.96;55.54
43820;BME280;67762;52.476;6.046;2023-04-25T10:16:40;101449.53;;;9.92;55.23
43820;BME280;67762;52.476;6.046;2023-04-25T10:19:07;101465.72;;;10.27;56.25
43820;BME280;67762;52.476;6.046;2023-04-25T10:21:33;101457.66;;;10.64;55.04
43820;BME280;67762;52.476;6.046;2023-04-25T10:24:00;101462.75;;;10.85;54.55
43820;BME280;67762;52.476;6.046;2023-04-25T10:26:26;101461.41;;;10.98;54.20
43820;BME280;67762;52.476;6.046;2023-04-25T10:28:57;101465.75;;;11.17;54.86
43820;BME280;67762;52.476;6.046;2023-04-25T10:31:23;101474.06;;;11.14;53.03
43820;BME280;67762;52.476;6.046;2023-04-25T10:33:49;101471.94;;;11.35;54.53
43820;BME280;67762;52.476;6.046;2023-04-25T10:36:18;101483.00;;;11.40;53.20
43820;BME280;67762;52.476;6.046;2023-04-25T10:38:45;101468.44;;;10.99;53.15
43820;BME280;67762;52.476;6.046;2023-04-25T10:41:13;101479.75;;;10.84;53.07
43820;BME280;67762;52.476;6.046;2023-04-25T10:43:43;101480.31;;;10.87;53.05
43820;BME280;67762;52.476;6.046;2023-04-25T10:48:52;101473.22;;;11.13;51.48
43820;BME280;67762;52.476;6.046;2023-04-25T10:53:58;101478.38;;;11.86;51.55
43820;BME280;67762;52.476;6.046;2023-04-25T10:56:26;101461.88;;;12.16;51.13
43820;BME280;67762;52.476;6.046;2023-04-25T10:59:07;101481.13;;;11.94;50.17
43820;BME280;67762;52.476;6.046;2023-04-25T11:01:40;101485.38;;;11.43;50.93
43820;BME280;67762;52.476;6.046;2023-04-25T11:04:06;101486.75;;;11.12;52.67
43820;BME280;67762;52.476;6.046;2023-04-25T11:06:55;101476.44;;;11.17;53.57
43820;BME280;67762;52.476;6.046;2023-04-25T11:09:24;101477.66;;;11.05;54.85
43820;BME280;67762;52.476;6.046;2023-04-25T11:11:57;101487.75;;;10.84;54.64
43820;BME280;67762;52.476;6.046;2023-04-25T11:14:24;101486.72;;;10.94;55.85
43820;BME280;67762;52.476;6.046;2023-04-25T11:16:54;101486.44;;;11.33;55.65
43820;BME280;67762;52.476;6.046;2023-04-25T11:19:22;101475.84;;;11.41;54.90
43820;BME280;67762;52.476;6.046;2023-04-25T11:21:48;101500.16;;;11.55;55.49
43820;BME280;67762;52.476;6.046;2023-04-25T11:24:16;101494.97;;;11.36;54.79
43820;BME280;67762;52.476;6.046;2023-04-25T11:26:43;101505.59;;;10.83;55.43
43820;BME280;67762;52.476;6.046;2023-04-25T11:29:09;101514.38;;;10.39;56.17
43820;BME280;67762;52.476;6.046;2023-04-25T11:31:35;101526.88;;;9.82;56.31
43820;BME280;67762;52.476;6.046;2023-04-25T11:34:00;101518.75;;;9.46;57.14
43820;BME280;67762;52.476;6.046;2023-04-25T11:36:26;101512.66;;;9.05;58.89
43820;BME280;67762;52.476;6.046;2023-04-25T11:38:53;101520.19;;;8.71;59.35
43820;BME280;67762;52.476;6.046;2023-04-25T11:41:19;101524.75;;;8.69;60.17
43820;BME280;67762;52.476;6.046;2023-04-25T11:43:45;101522.88;;;8.91;60.87
43820;BME280;67762;52.476;6.046;2023-04-25T11:46:11;101528.94;;;9.02;60.79
43820;BME280;67762;52.476;6.046;2023-04-25T11:48:41;101524.28;;;8.95;60.80
43820;BME280;67762;52.476;6.046;2023-04-25T11:51:07;101529.06;;;8.91;62.05
43820;BME280;67762;52.476;6.046;2023-04-25T11:53:33;101525.44;;;8.62;63.08
43820;BME280;67762;52.476;6.046;2023-04-25T11:55:59;101532.66;;;8.41;62.83
43820;BME280;67762;52.476;6.046;2023-04-25T11:58:25;101531.97;;;8.48;63.06
43820;BME280;67762;52.476;6.046;2023-04-25T12:00:51;101530.56;;;8.74;62.63
43820;BME280;67762;52.476;6.046;2023-04-25T12:03:18;101538.47;;;9.05;63.04
43820;BME280;67762;52.476;6.046;2023-04-25T12:05:45;101536.69;;;9.34;62.36
43820;BME280;67762;52.476;6.046;2023-04-25T12:10:39;101537.06;;;10.06;60.19
43820;BME280;67762;52.476;6.046;2023-04-25T12:13:22;101545.34;;;10.03;57.99
43820;BME280;67762;52.476;6.046;2023-04-25T12:15:50;101553.31;;;10.22;58.08
43820;BME280;67762;52.476;6.046;2023-04-25T12:18:19;101553.91;;;10.63;57.37
43820;BME280;67762;52.476;6.046;2023-04-25T12:20:47;101538.00;;;10.71;55.76
43820;BME280;67762;52.476;6.046;2023-04-25T12:23:12;101540.97;;;10.68;53.26
43820;BME280;67762;52.476;6.046;2023-04-25T12:25:42;101544.84;;;10.83;54.00
43820;BME280;67762;52.476;6.046;2023-04-25T12:28:21;101544.53;;;11.13;54.76
43820;BME280;67762;52.476;6.046;2023-04-25T12:31:07;101554.31;;;11.40;55.16
43820;BME280;67762;52.476;6.046;2023-04-25T12:33:35;101551.63;;;10.68;55.37
43820;BME280;67762;52.476;6.046;2023-04-25T12:36:03;101555.41;;;10.38;56.51
43820;BME280;67762;52.476;6.046;2023-04-25T12:38:38;101563.13;;;10.31;56.31
43820;BME280;67762;52.476;6.046;2023-04-25T12:41:05;101561.31;;;10.22;55.97
43820;BME280;67762;52.476;6.046;2023-04-25T12:43:30;101561.50;;;10.21;54.65
43820;BME280;67762;52.476;6.046;2023-04-25T12:45:56;101567.22;;;10.26;54.27
43820;BME280;67762;52.476;6.046;2023-04-25T12:48:22;101564.66;;;10.34;53.73
43820;BME280;67762;52.476;6.046;2023-04-25T12:50:49;101566.75;;;10.49;54.07
43820;BME280;67762;52.476;6.046;2023-04-25T12:53:17;101572.41;;;10.74;53.73
43820;BME280;67762;52.476;6.046;2023-04-25T12:55:43;101559.81;;;10.93;54.77
43820;BME280;67762;52.476;6.046;2023-04-25T12:58:11;101568.22;;;10.71;52.95
43820;BME280;67762;52.476;6.046;2023-04-25T13:00:36;101576.31;;;10.42;54.06
43820;BME280;67762;52.476;6.046;2023-04-25T13:03:03;101563.31;;;10.20;52.94
43820;BME280;67762;52.476;6.046;2023-04-25T13:05:30;101563.72;;;10.25;52.59
43820;BME280;67762;52.476;6.046;2023-04-25T13:07:56;101572.00;;;10.32;52.30
43820;BME280;67762;52.476;6.046;2023-04-25T13:10:22;101570.56;;;10.37;51.97
43820;BME280;67762;52.476;6.046;2023-04-25T13:12:48;101568.22;;;10.62;51.95
43820;BME280;67762;52.476;6.046;2023-04-25T13:15:14;101567.31;;;10.80;51.93
43820;BME280;67762;52.476;6.046;2023-04-25T13:17:41;101572.13;;;11.04;52.21